ADDS METAR Data INFO
IDs: Format: Raw Decoded Include TAF

Data at: 1147 UTC 21 Jun 2018

KCWF 211100Z 00000KT 10SM BKN100 24/23 A2991
KCWF 211035Z AUTO 00000KT 10SM SCT015 BKN100 SCT120 24/23 A2989 RMK AO2 LTG DSNT W T02360230
KCWF 211015Z AUTO 00000KT 10SM CLR 23/23 A2989 RMK AO2 T02350230
KCWF 210955Z AUTO 00000KT 10SM CLR 23/23 A2989 RMK AO2 T02350230
KCWF 210935Z AUTO 00000KT 10SM CLR 24/23 A2989 RMK AO2 T02370231
KCWF 210915Z AUTO 00000KT 10SM CLR 24/23 A2989 RMK AO2 T02380231
KCWF 210855Z AUTO 00000KT 10SM CLR 24/23 A2990 RMK AO2 T02400230
KCWF 210835Z AUTO 00000KT 10SM CLR 24/23 A2989 RMK AO2 T02370230
KCWF 210815Z AUTO 00000KT 10SM SCT013 24/23 A2989 RMK AO2 T02400231
KCWF 210755Z AUTO 00000KT 10SM BKN015 24/23 A2989 RMK AO2 T02400230
KCWF 210735Z AUTO 00000KT 10SM BKN015 BKN021 24/23 A2989 RMK AO2 T02400227
KCWF 210715Z AUTO 00000KT 10SM RA OVC015 24/22 A2990 RMK AO2 LTG DSNT NE T02400225
KCWF 210655Z AUTO 01003KT 10SM SCT017 BKN031 24/23 A2991 RMK AO2 LTG DSNT NE T02400228
KCWF 210635Z AUTO 00000KT 10SM SCT070 SCT120 24/22 A2991 RMK AO2 T02440225
KCWF 210615Z AUTO 00000KT 10SM SCT018 SCT024 BKN070 24/22 A2991 RMK AO2 LTG DSNT N AND NE T02450224
KCWF 210555Z AUTO 31006KT 10SM SCT013 BKN018 OVC047 25/22 A2992 RMK AO2 LTG DSNT N AND W P0001 60006 T02500222 10290 20250 403240243
KCWF 210535Z AUTO 28010G15KT 10SM VCTS SCT009 BKN036 OVC070 26/24 A2992 RMK AO2 LTG DSNT N AND W P0001 T02610237
KCWF 210515Z AUTO 14006KT 7SM VCTS SCT013 BKN050 OVC070 27/26 A2992 RMK AO2 LTG DSNT SW THRU N T02650258
KCWF 210455Z AUTO 11006KT 4SM +VCTSRA SCT013 BKN034 OVC070 26/26 A2992 RMK AO2 LTG DSNT SW THRU NW P0005 T02650255
KCWF 210435Z AUTO 10006KT 7SM VCTS SCT015 BKN029 OVC043 26/25 A2992 RMK AO2 LTG DSNT SW THRU NW T02610255
KCWF 210415Z AUTO 11007KT 7SM VCTS SCT028 BKN033 26/25 A2993 RMK AO2 LTG DSNT SW THRU NW T02620253
KCWF 210355Z AUTO 13004KT 10SM VCTS SCT015 BKN030 BKN036 26/25 A2991 RMK AO2 LTG DSNT SW THRU NW T02620253
KCWF 210335Z AUTO 12005KT 10SM SCT016 SCT027 SCT031 26/25 A2989 RMK AO2 LTG DSNT SW THRU NW T02650253
KCWF 210315Z AUTO 13005KT 10SM SCT016 BKN027 BKN031 26/25 A2991 RMK AO2 LTG DSNT SW AND W T02630253
KCWF 210245Z 11007KT 10SM SKC 27/25 A2989
KCWF 202345Z 17007KT 10SM SCT023 BKN036 29/25 A2986
KCWF 202245Z 18013KT 10SM SCT026 BKN065 30/25 A2986
KCWF 202155Z 17012G16KT 10SM SCT030 BKN048 31/24 A2987
KCWF 202045Z 18013G16KT 10SM SCT034 BKN060 32/24 A2987
KCWF 201955Z 15011KT 10SM BKN039 BKN050 31/23 A2987
KCWF 201855Z 14014G18KT 10SM BKN035 BKN042 31/24 A2990
KCWF 201750Z 16011G20KT 10SM BKN037 BKN041 31/23 A2992
KCWF 201655Z 13015G20KT 10SM BKN031 BKN039 30/24 A2992
KCWF 201547Z 14012G18KT 10SM BKN020 BKN028 29/24 A2993
KCWF 201455Z 14011G16KT 10SM BKN016 BKN020 BKN100 28/25 A2993
KCWF 201355Z 10007KT 10SM BKN100 26/25 A2992
KCWF 201250Z 10007KT 10SM SCT080 BKN100 24/23 A2992
KCWF 201150Z 11006KT 7SM BKN110 24/24 A2991
KCWF 201100Z 130007KT 10SM SCT009 BKN044 25/24 A2990
KCWF 201035Z AUTO 14008KT 5SM -RA BKN012 BKN039 OVC110 25/25 A2990 RMK AO2 P0006 T02500245
KCWF 201015Z AUTO 12005KT 5SM RA SCT017 SCT039 BKN120 25/24 A2989 RMK AO2 P0001 T02470245
KCWF 200955Z AUTO 12004KT 5SM RA BKN120 25/24 A2989 RMK AO2 P0002 T02460243
KCWF 200935Z AUTO 11004KT 7SM CLR 25/24 A2989 RMK AO2 T02460242
KCWF 200915Z AUTO 11004KT 7SM CLR 25/24 A2990 RMK AO2 T02460242
KCWF 200855Z AUTO 09005KT 7SM CLR 25/24 A2989 RMK AO2 T02450241
KCWF 200835Z AUTO 10005KT 7SM CLR 25/24 A2990 RMK AO2 T02450241
KCWF 200815Z AUTO 10004KT 7SM CLR 25/24 A2990 RMK AO2 T02460242
KCWF 200755Z AUTO 10005KT 7SM SCT120 24/24 A2990 RMK AO2 T02450241
KCWF 200735Z AUTO 10005KT 7SM BKN120 24/24 A2991 RMK AO2 T02450241
KCWF 200715Z AUTO 11005KT 7SM SCT120 24/24 A2991 RMK AO2 T02450240
KCWF 200655Z AUTO 10005KT 7SM CLR 24/24 A2991 RMK AO2 T02450241
KCWF 200635Z AUTO 10006KT 7SM CLR 24/24 A2992 RMK AO2 T02450242
KCWF 200615Z AUTO 09005KT 7SM SCT020 SCT035 24/24 A2992 RMK AO2 T02450241
KCWF 200555Z AUTO 10004KT 5SM BR SCT020 SCT034 24/24 A2993 RMK AO2 T02440240 10261 20244 402720227
KCWF 200535Z AUTO 10004KT 7SM SCT020 SCT029 25/24 A2993 RMK AO2 T02460242
KCWF 200515Z AUTO 10005KT 7SM SCT022 SCT029 25/24 A2994 RMK AO2 T02460242
KCWF 200455Z AUTO 10004KT 7SM CLR 25/24 A2994 RMK AO2 T02480243
KCWF 200435Z AUTO 08004KT 7SM CLR 25/24 A2993 RMK AO2 T02500244
KCWF 200415Z AUTO 09006KT 10SM CLR 25/24 A2993 RMK AO2 T02520245
KCWF 200355Z AUTO 10006KT 10SM CLR 25/25 A2993 RMK AO2 T02530246
KCWF 200335Z AUTO 12005KT 10SM SCT018 SCT022 25/24 A2994 RMK AO2 T02530245
KCWF 200315Z AUTO 12005KT 10SM SCT018 SCT022 25/25 A2994 RMK AO2 T02550247
KCWF 200250Z 11006KT 10SM OVC120 26/25 A2993 RMK LAST
KCWF 200150Z 10005KT 10SM OVC120 26/25 A2992
KCWF 200050Z 10005KT 6SM BR OVC120 26/25 A2992
KCWF 192350Z 00000KT 6SM BR SCT015 25/24 A2993